Time;durP1;ratioP1;P1;durP2;ratioP2;P2;SDS_P1;SDS_P2;PMS_P1;PMS_P2;Temp;Humidity;BMP_temperature;BMP_pressure;BME280_temperature;BME280_humidity;BME280_pressure;Samples;Min_cycle;Max_cycle;Signal;HPM_P1;HPM_P2
2023/03/21 00:00:34;;;;;;;8.02;4.95;;;;;;;;;;4989263;28;20018;-74
2023/03/21 00:03:00;;;;;;;9.77;4.75;;;;;;;;;;4989229;28;20026;-73
2023/03/21 00:05:26;;;;;;;9.40;5.00;;;;;;;;;;4990602;28;20014;-73
2023/03/21 00:07:52;;;;;;;7.00;4.90;;;;;;;;;;4988972;28;20026;-73
2023/03/21 00:10:18;;;;;;;10.73;4.80;;;;;;;;;;4991001;28;20030;-73
2023/03/21 00:12:49;;;;;;;9.30;5.10;;;;;;;;;;5006394;28;20034;-76
2023/03/21 00:15:17;;;;;;;9.82;5.60;;;;;;;;;;4990526;28;20118;-72
2023/03/21 00:17:43;;;;;;;6.28;4.90;;;;;;;;;;4992279;28;20137;-73
2023/03/21 00:20:14;;;;;;;9.07;5.47;;;;;;;;;;4992236;28;20041;-72
2023/03/21 00:22:40;;;;;;;8.50;5.25;;;;;;;;;;4990853;28;20030;-71
2023/03/21 00:25:08;;;;;;;8.00;5.18;;;;;;;;;;4990168;28;20463;-71
2023/03/21 00:27:33;;;;;;;10.43;5.70;;;;;;;;;;4989908;28;20030;-71
2023/03/21 00:29:59;;;;;;;9.07;5.45;;;;;;;;;;4989685;28;20026;-73
2023/03/21 00:32:25;;;;;;;9.82;5.45;;;;;;;;;;4990224;28;20046;-72
2023/03/21 00:34:51;;;;;;;9.00;5.80;;;;;;;;;;4989862;28;20494;-73
2023/03/21 00:37:17;;;;;;;10.00;5.72;;;;;;;;;;4989753;28;20030;-73
2023/03/21 00:39:47;;;;;;;11.50;5.72;;;;;;;;;;4981610;28;20027;-72
2023/03/21 00:42:14;;;;;;;10.85;6.10;;;;;;;;;;4969527;28;20146;-72
2023/03/21 00:44:40;;;;;;;8.27;5.35;;;;;;;;;;4969421;28;20113;-72
2023/03/21 00:47:06;;;;;;;8.50;6.07;;;;;;;;;;4953163;28;20109;-72
2023/03/21 00:49:32;;;;;;;9.05;5.90;;;;;;;;;;4969382;28;20542;-72
2023/03/21 00:51:59;;;;;;;31.73;7.68;;;;;;;;;;4953769;28;20058;-72
2023/03/21 00:54:25;;;;;;;13.07;6.53;;;;;;;;;;4971219;28;20034;-71
2023/03/21 00:56:50;;;;;;;11.25;5.82;;;;;;;;;;4969398;28;20023;-72
2023/03/21 00:59:16;;;;;;;11.15;6.15;;;;;;;;;;4971722;28;20138;-72
2023/03/21 01:01:45;;;;;;;10.60;5.68;;;;;;;;;;4970542;28;20027;-72
2023/03/21 01:04:13;;;;;;;10.68;6.10;;;;;;;;;;4969960;28;20105;-72
2023/03/21 01:06:40;;;;;;;13.60;6.82;;;;;;;;;;4969950;28;20081;-72
2023/03/21 01:09:19;;;;;;;10.40;5.95;;;;;;;;;;4969762;28;20118;-72
2023/03/21 01:11:45;;;;;;;12.82;6.50;;;;;;;;;;4969616;28;20491;-73
2023/03/21 01:14:13;;;;;;;11.35;6.07;;;;;;;;;;4970326;28;20027;-73
2023/03/21 01:16:39;;;;;;;13.85;6.38;;;;;;;;;;4969174;28;20471;-72
2023/03/21 01:19:06;;;;;;;12.32;6.15;;;;;;;;;;4969103;28;20038;-72
2023/03/21 01:21:32;;;;;;;13.73;6.18;;;;;;;;;;4969361;28;20022;-72
2023/03/21 01:23:58;;;;;;;10.50;6.20;;;;;;;;;;4985419;28;20510;-72
2023/03/21 01:26:24;;;;;;;9.90;5.85;;;;;;;;;;4970663;28;20035;-72
2023/03/21 01:28:49;;;;;;;11.70;6.32;;;;;;;;;;4970761;28;20108;-72
2023/03/21 01:31:16;;;;;;;9.35;5.80;;;;;;;;;;4970588;28;20030;-72
2023/03/21 01:33:43;;;;;;;12.73;6.30;;;;;;;;;;4969112;28;20398;-72
2023/03/21 01:36:14;;;;;;;11.35;6.15;;;;;;;;;;4968758;28;20034;-72
2023/03/21 01:38:43;;;;;;;12.07;6.45;;;;;;;;;;4971336;28;20110;-73
2023/03/21 01:41:26;;;;;;;13.00;6.07;;;;;;;;;;4990489;28;20036;-72
2023/03/21 01:43:52;;;;;;;11.98;6.60;;;;;;;;;;4992138;28;20105;-72
2023/03/21 01:46:27;;;;;;;14.20;6.65;;;;;;;;;;4993631;28;20408;-71
2023/03/21 01:49:09;;;;;;;12.55;6.32;;;;;;;;;;4992149;28;20677;-72
2023/03/21 01:51:37;;;;;;;;;;;;;;;;;;4992746;28;20030;-72
2023/03/21 01:54:05;;;;;;;11.30;5.60;;;;;;;;;;4993880;28;19960;-71
2023/03/21 01:56:35;;;;;;;11.48;6.72;;;;;;;;;;4993689;28;20132;-72
2023/03/21 01:59:20;;;;;;;12.50;6.95;;;;;;;;;;4993623;28;20026;-72
2023/03/21 02:01:47;;;;;;;12.40;7.40;;;;;;;;;;4992310;28;20121;-71
2023/03/21 02:04:13;;;;;;;14.88;7.53;;;;;;;;;;4992903;28;20367;-72
2023/03/21 02:06:50;;;;;;;16.13;8.07;;;;;;;;;;4991199;28;20498;-71
2023/03/21 02:09:21;;;;;;;12.88;7.22;;;;;;;;;;4990896;28;20026;-71
2023/03/21 02:11:47;;;;;;;11.38;6.90;;;;;;;;;;4992841;28;20080;-71
2023/03/21 02:14:18;;;;;;;11.02;6.90;;;;;;;;;;4992457;28;20030;-71
2023/03/21 02:17:07;;;;;;;11.40;5.95;;;;;;;;;;4991444;28;20023;-72
2023/03/21 02:20:24;;;;;;;13.02;7.65;;;;;;;;;;4992018;28;20064;-71
2023/03/21 02:22:58;;;;;;;12.40;6.47;;;;;;;;;;4990002;28;20041;-73
2023/03/21 02:25:49;;;;;;;15.82;7.80;;;;;;;;;;4991504;28;20018;-73
2023/03/21 02:28:24;;;;;;;14.40;7.50;;;;;;;;;;4991691;28;20026;-74
2023/03/21 02:30:56;;;;;;;11.82;7.32;;;;;;;;;;4993165;28;20448;-74
2023/03/21 02:33:33;;;;;;;13.55;7.40;;;;;;;;;;4991350;28;20112;-72
2023/03/21 02:36:15;;;;;;;13.27;7.07;;;;;;;;;;4990673;28;20558;-73
2023/03/21 02:39:12;;;;;;;9.63;6.43;;;;;;;;;;4990919;28;20121;-73
2023/03/21 02:42:16;;;;;;;10.45;6.68;;;;;;;;;;4991266;28;20029;-74
2023/03/21 02:45:03;;;;;;;12.80;7.22;;;;;;;;;;4981103;28;20030;-73
2023/03/21 02:47:51;;;;;;;14.50;6.60;;;;;;;;;;4992348;28;20023;-73
2023/03/21 02:50:36;;;;;;;12.53;7.07;;;;;;;;;;4992030;28;20542;-74
2023/03/21 02:53:05;;;;;;;11.37;6.30;;;;;;;;;;4990372;28;20042;-75
2023/03/21 02:55:32;;;;;;;13.27;7.40;;;;;;;;;;4990705;28;20567;-73
2023/03/21 02:57:58;;;;;;;12.20;7.17;;;;;;;;;;4990339;28;20052;-73
2023/03/21 03:00:30;;;;;;;14.02;7.50;;;;;;;;;;4990332;28;20487;-73
2023/03/21 03:02:56;;;;;;;12.13;7.75;;;;;;;;;;4990268;28;20136;-73
2023/03/21 03:05:32;;;;;;;13.32;6.90;;;;;;;;;;4990059;28;20027;-73
2023/03/21 03:08:27;;;;;;;14.97;7.83;;;;;;;;;;4990610;28;20085;-73
2023/03/21 03:10:58;;;;;;;14.70;7.13;;;;;;;;;;4990262;28;20057;-73
2023/03/21 03:14:04;;;;;;;16.80;7.72;;;;;;;;;;4991584;28;20026;-74
2023/03/21 03:16:46;;;;;;;13.20;7.50;;;;;;;;;;4955478;28;20081;-72
2023/03/21 03:19:26;;;;;;;14.70;7.22;;;;;;;;;;4970553;28;20535;-73
2023/03/21 03:22:02;;;;;;;15.83;7.40;;;;;;;;;;4977154;28;20545;-73
2023/03/21 03:25:04;;;;;;;12.67;7.50;;;;;;;;;;4989925;28;20081;-73
2023/03/21 03:27:35;;;;;;;16.75;6.80;;;;;;;;;;4989852;28;20031;-73
2023/03/21 03:30:04;;;;;;;13.90;6.63;;;;;;;;;;4989502;28;20501;-73
2023/03/21 03:32:52;;;;;;;19.77;8.17;;;;;;;;;;4991327;28;20030;-73
2023/03/21 03:35:21;;;;;;;12.87;7.33;;;;;;;;;;4990132;28;20483;-73
2023/03/21 03:37:50;;;;;;;12.90;7.33;;;;;;;;;;4989986;28;20041;-73
2023/03/21 03:40:31;;;;;;;19.17;8.50;;;;;;;;;;4975916;28;20027;-74
2023/03/21 03:43:04;;;;;;;14.03;7.37;;;;;;;;;;4970768;28;20109;-73
2023/03/21 03:45:35;;;;;;;13.10;7.03;;;;;;;;;;4970409;28;20451;-73
2023/03/21 03:48:24;;;;;;;15.23;7.77;;;;;;;;;;4971717;28;20078;-72
2023/03/21 03:51:08;;;;;;;15.70;7.10;;;;;;;;;;4970102;28;20260;-72
2023/03/21 03:53:39;;;;;;;14.07;7.25;;;;;;;;;;4971728;28;20030;-73
2023/03/21 03:56:08;;;;;;;14.95;6.95;;;;;;;;;;4969818;28;20026;-73
2023/03/21 03:58:34;;;;;;;12.45;7.18;;;;;;;;;;4970123;28;20078;-73
2023/03/21 04:01:00;;;;;;;13.43;7.57;;;;;;;;;;4970523;28;20042;-72
2023/03/21 04:03:26;;;;;;;18.13;6.82;;;;;;;;;;4970767;28;20038;-73
2023/03/21 04:05:52;;;;;;;11.87;7.37;;;;;;;;;;4970124;28;20546;-73
2023/03/21 04:08:18;;;;;;;15.73;8.07;;;;;;;;;;4971709;28;20019;-73
2023/03/21 04:10:44;;;;;;;14.23;6.97;;;;;;;;;;4972200;28;20037;-73
2023/03/21 04:13:09;;;;;;;17.60;7.63;;;;;;;;;;4971637;28;20093;-73
2023/03/21 04:15:35;;;;;;;14.03;6.87;;;;;;;;;;4971538;28;20081;-73
2023/03/21 04:18:01;;;;;;;18.38;8.00;;;;;;;;;;4969823;28;20468;-73
2023/03/21 04:20:27;;;;;;;16.30;7.93;;;;;;;;;;4979517;28;20177;-73
2023/03/21 04:22:53;;;;;;;13.80;6.70;;;;;;;;;;4990604;28;20033;-72
2023/03/21 04:25:19;;;;;;;16.97;7.90;;;;;;;;;;5005211;28;20028;-72
2023/03/21 04:27:45;;;;;;;16.63;7.20;;;;;;;;;;4990352;28;20022;-73
2023/03/21 04:30:11;;;;;;;13.97;7.93;;;;;;;;;;4990534;28;20368;-73
2023/03/21 04:32:41;;;;;;;15.00;8.10;;;;;;;;;;4973091;28;20043;-73
2023/03/21 04:35:09;;;;;;;17.53;8.00;;;;;;;;;;4990335;28;20022;-73
2023/03/21 04:37:35;;;;;;;17.77;7.32;;;;;;;;;;4990739;28;20026;-72
2023/03/21 04:40:06;;;;;;;15.27;7.50;;;;;;;;;;4985535;28;20173;-72
2023/03/21 04:42:33;;;;;;;14.37;6.63;;;;;;;;;;4971075;28;20051;-72
2023/03/21 04:45:00;;;;;;;15.30;8.38;;;;;;;;;;4969978;28;20023;-72
2023/03/21 04:47:25;;;;;;;15.55;8.95;;;;;;;;;;4972880;28;20418;-72
2023/03/21 04:49:52;;;;;;;15.73;9.13;;;;;;;;;;4990536;28;20027;-72
2023/03/21 04:52:18;;;;;;;15.30;8.10;;;;;;;;;;4989287;28;20112;-72
2023/03/21 04:54:44;;;;;;;14.75;7.65;;;;;;;;;;4990530;28;20023;-72
2023/03/21 04:57:09;;;;;;;11.37;6.90;;;;;;;;;;4988958;28;20473;-73
2023/03/21 04:59:35;;;;;;;16.20;7.97;;;;;;;;;;4988905;28;20578;-72
2023/03/21 05:02:01;;;;;;;19.47;8.97;;;;;;;;;;4988552;28;20030;-72
2023/03/21 05:04:27;;;;;;;22.30;7.65;;;;;;;;;;4988242;28;20058;-73
2023/03/21 05:06:53;;;;;;;20.80;8.60;;;;;;;;;;4988405;28;20030;-72
2023/03/21 05:09:20;;;;;;;16.85;7.93;;;;;;;;;;4988291;28;20120;-73
2023/03/21 05:11:47;;;;;;;16.92;8.55;;;;;;;;;;4990820;28;20037;-73
2023/03/21 05:14:18;;;;;;;15.27;7.53;;;;;;;;;;4989350;28;20026;-73
2023/03/21 05:16:47;;;;;;;19.57;8.23;;;;;;;;;;4993624;28;20034;-73
2023/03/21 05:19:16;;;;;;;15.13;8.53;;;;;;;;;;4995326;28;20030;-73
2023/03/21 05:21:42;;;;;;;15.87;8.00;;;;;;;;;;4994198;28;20034;-73
2023/03/21 05:24:14;;;;;;;18.33;8.50;;;;;;;;;;4993406;28;20034;-73
2023/03/21 05:26:41;;;;;;;18.80;8.20;;;;;;;;;;4993251;28;20125;-71
2023/03/21 05:29:08;;;;;;;18.77;9.07;;;;;;;;;;4992967;28;20488;-71
2023/03/21 05:31:33;;;;;;;25.07;8.43;;;;;;;;;;4992364;28;20041;-74
2023/03/21 05:33:59;;;;;;;14.27;8.27;;;;;;;;;;4994858;28;20113;-72
2023/03/21 05:36:25;;;;;;;24.93;9.33;;;;;;;;;;4992624;28;20052;-74
2023/03/21 05:38:50;;;;;;;21.87;10.13;;;;;;;;;;4992476;28;20620;-72
2023/03/21 05:41:17;;;;;;;20.60;9.23;;;;;;;;;;5009208;28;20034;-73
2023/03/21 05:43:43;;;;;;;18.53;8.33;;;;;;;;;;4994850;28;20034;-73
2023/03/21 05:46:10;;;;;;;16.97;8.50;;;;;;;;;;4992153;28;20726;-72
2023/03/21 05:48:36;;;;;;;64.90;13.80;;;;;;;;;;4993597;28;20105;-72
2023/03/21 05:51:03;;;;;;;29.70;9.80;;;;;;;;;;5008406;28;20121;-74
2023/03/21 05:53:28;;;;;;;17.90;8.13;;;;;;;;;;4993311;28;20146;-74
2023/03/21 05:55:54;;;;;;;26.13;9.35;;;;;;;;;;4991717;28;20050;-74
2023/03/21 05:58:19;;;;;;;20.52;9.82;;;;;;;;;;4993105;28;20403;-73
2023/03/21 06:00:45;;;;;;;20.07;9.50;;;;;;;;;;4991485;28;20026;-73
2023/03/21 06:03:11;;;;;;;30.70;11.33;;;;;;;;;;4991498;28;20379;-73
2023/03/21 06:05:36;;;;;;;24.70;10.40;;;;;;;;;;4991477;28;20030;-73
2023/03/21 06:08:02;;;;;;;17.77;8.85;;;;;;;;;;4993083;28;20065;-73
2023/03/21 06:10:27;;;;;;;14.70;8.10;;;;;;;;;;4991450;28;20239;-75
2023/03/21 06:12:53;;;;;;;15.90;8.23;;;;;;;;;;4991129;28;20459;-74
2023/03/21 06:15:19;;;;;;;13.93;7.05;;;;;;;;;;4993514;28;20030;-74
2023/03/21 06:17:44;;;;;;;16.33;7.75;;;;;;;;;;4990688;28;20073;-75
2023/03/21 06:20:10;;;;;;;23.73;9.52;;;;;;;;;;4991821;28;20117;-73
2023/03/21 06:22:36;;;;;;;12.95;7.35;;;;;;;;;;4992476;28;20045;-76
2023/03/21 06:25:04;;;;;;;19.58;8.65;;;;;;;;;;4989921;28;20030;-75
2023/03/21 06:27:30;;;;;;;14.38;7.32;;;;;;;;;;4989342;28;20555;-75
2023/03/21 06:29:56;;;;;;;18.55;8.68;;;;;;;;;;4986512;28;20037;-75
2023/03/21 06:32:22;;;;;;;19.45;8.90;;;;;;;;;;4985754;28;20027;-71
2023/03/21 06:34:48;;;;;;;19.60;8.30;;;;;;;;;;4985862;28;20061;-73
2023/03/21 06:37:14;;;;;;;20.35;8.23;;;;;;;;;;4983800;28;20034;-77
2023/03/21 06:39:41;;;;;;;24.33;10.20;;;;;;;;;;4987098;28;20053;-77
2023/03/21 06:42:07;;;;;;;28.58;9.80;;;;;;;;;;4993177;28;20037;-78
2023/03/21 06:44:34;;;;;;;24.17;9.75;;;;;;;;;;4991695;28;20038;-76
2023/03/21 06:47:00;;;;;;;22.10;8.57;;;;;;;;;;4969527;28;20118;-75
2023/03/21 06:49:26;;;;;;;15.65;8.43;;;;;;;;;;4987425;28;20420;-74
2023/03/21 06:51:53;;;;;;;30.92;10.00;;;;;;;;;;4988495;28;20026;-77
2023/03/21 06:54:19;;;;;;;21.10;8.25;;;;;;;;;;4986743;28;20046;-75
2023/03/21 06:56:46;;;;;;;15.50;7.25;;;;;;;;;;4984719;28;20040;-78
2023/03/21 06:59:12;;;;;;;23.17;8.85;;;;;;;;;;4977586;28;20810;-79
2023/03/21 07:01:38;;;;;;;16.83;7.40;;;;;;;;;;4989536;28;20053;-74
2023/03/21 07:04:05;;;;;;;13.93;6.93;;;;;;;;;;4985839;28;20054;-75
2023/03/21 07:06:32;;;;;;;15.07;6.93;;;;;;;;;;4986535;28;20655;-78
2023/03/21 07:08:58;;;;;;;13.32;7.03;;;;;;;;;;4987203;28;20034;-76
2023/03/21 07:11:27;;;;;;;17.35;6.68;;;;;;;;;;4976037;28;20065;-81
2023/03/21 07:13:53;;;;;;;13.13;6.63;;;;;;;;;;4986122;28;20042;-75
2023/03/21 07:16:20;;;;;;;14.93;7.10;;;;;;;;;;4973371;28;20034;-76
2023/03/21 07:18:46;;;;;;;27.50;8.55;;;;;;;;;;4986808;28;20054;-75
2023/03/21 07:21:13;;;;;;;20.40;7.32;;;;;;;;;;4984906;28;20050;-76
2023/03/21 07:23:39;;;;;;;13.32;7.35;;;;;;;;;;4983361;28;20028;-77
2023/03/21 07:26:05;;;;;;;13.38;6.95;;;;;;;;;;4968674;28;20053;-76
2023/03/21 07:28:32;;;;;;;14.32;7.35;;;;;;;;;;4988744;28;20054;-77
2023/03/21 07:31:01;;;;;;;10.73;6.38;;;;;;;;;;4987033;28;20035;-75
2023/03/21 07:33:29;;;;;;;16.33;7.35;;;;;;;;;;4982150;28;20034;-77
2023/03/21 07:35:56;;;;;;;20.70;8.40;;;;;;;;;;4986457;28;20494;-77
2023/03/21 07:38:22;;;;;;;12.07;7.28;;;;;;;;;;4989174;28;20041;-75
2023/03/21 07:40:49;;;;;;;15.25;6.82;;;;;;;;;;4989972;28;20042;-79
2023/03/21 07:43:15;;;;;;;19.65;7.80;;;;;;;;;;4985960;28;20107;-82
2023/03/21 07:45:41;;;;;;;10.07;6.38;;;;;;;;;;4986692;28;20037;-77
2023/03/21 07:48:11;;;;;;;14.68;7.28;;;;;;;;;;4992682;28;20479;-78
2023/03/21 07:50:38;;;;;;;17.33;7.60;;;;;;;;;;5004502;28;20054;-80
2023/03/21 07:53:04;;;;;;;12.75;6.18;;;;;;;;;;5005131;28;20106;-78
2023/03/21 07:55:33;;;;;;;14.45;7.30;;;;;;;;;;4996272;28;20081;-76
2023/03/21 07:58:02;;;;;;;14.85;6.57;;;;;;;;;;5004183;28;20040;-77
2023/03/21 08:00:27;;;;;;;12.02;5.45;;;;;;;;;;4993812;28;20168;-81
2023/03/21 08:02:55;;;;;;;16.10;7.30;;;;;;;;;;4983243;28;20402;-78
2023/03/21 08:05:23;;;;;;;10.50;5.88;;;;;;;;;;4985985;28;20116;-77
2023/03/21 08:07:49;;;;;;;8.65;5.80;;;;;;;;;;4987521;28;20061;-74
2023/03/21 08:10:15;;;;;;;10.88;6.32;;;;;;;;;;4986746;28;20149;-78
2023/03/21 08:12:41;;;;;;;11.00;5.78;;;;;;;;;;4986006;28;20038;-76
2023/03/21 08:15:07;;;;;;;14.35;6.60;;;;;;;;;;4975403;28;20034;-75
2023/03/21 08:17:35;;;;;;;13.55;6.72;;;;;;;;;;4974762;28;20042;-79
2023/03/21 08:20:03;;;;;;;15.18;6.82;;;;;;;;;;4969358;28;20034;-76
2023/03/21 08:22:29;;;;;;;13.55;6.30;;;;;;;;;;4973668;28;20026;-78
2023/03/21 08:24:54;;;;;;;10.48;6.55;;;;;;;;;;4973609;28;20097;-76
2023/03/21 08:27:25;;;;;;;18.13;6.18;;;;;;;;;;4973215;28;20100;-77
2023/03/21 08:29:51;;;;;;;15.70;7.72;;;;;;;;;;4979071;28;20041;-75
2023/03/21 08:32:18;;;;;;;13.75;6.85;;;;;;;;;;4981577;28;20030;-76
2023/03/21 08:34:45;;;;;;;14.52;7.18;;;;;;;;;;4983521;28;20077;-77
2023/03/21 08:37:10;;;;;;;11.23;6.55;;;;;;;;;;4982416;28;20041;-76
2023/03/21 08:39:37;;;;;;;13.93;7.03;;;;;;;;;;4983746;28;20030;-77
2023/03/21 08:42:04;;;;;;;17.48;7.03;;;;;;;;;;4982393;28;20148;-78
2023/03/21 08:44:29;;;;;;;16.88;7.10;;;;;;;;;;4979051;28;20041;-75
2023/03/21 08:46:55;;;;;;;15.75;6.95;;;;;;;;;;4980651;28;20034;-74
2023/03/21 08:49:22;;;;;;;11.93;6.38;;;;;;;;;;4982045;28;20038;-77
2023/03/21 08:51:47;;;;;;;10.07;6.05;;;;;;;;;;4983532;28;20113;-75
2023/03/21 08:54:19;;;;;;;13.95;6.15;;;;;;;;;;4984554;28;20105;-75
2023/03/21 08:56:44;;;;;;;12.45;5.80;;;;;;;;;;4983487;28;20417;-76
2023/03/21 08:59:10;;;;;;;14.50;6.65;;;;;;;;;;4983760;28;20093;-76
2023/03/21 09:01:36;;;;;;;9.85;5.40;;;;;;;;;;4977956;28;20026;-74
2023/03/21 09:04:06;;;;;;;10.57;5.07;;;;;;;;;;4975277;28;20030;-77
2023/03/21 09:06:32;;;;;;;9.82;4.65;;;;;;;;;;4975853;28;20022;-75
2023/03/21 09:08:58;;;;;;;7.93;4.85;;;;;;;;;;4983851;28;20074;-77
2023/03/21 09:11:26;;;;;;;9.13;4.78;;;;;;;;;;4982375;28;20117;-76
2023/03/21 09:13:52;;;;;;;9.55;4.70;;;;;;;;;;4981271;28;20030;-75
2023/03/21 09:16:24;;;;;;;8.68;5.60;;;;;;;;;;4985168;28;20537;-76
2023/03/21 09:18:54;;;;;;;8.48;4.10;;;;;;;;;;4986806;28;20509;-76
2023/03/21 09:21:21;;;;;;;7.18;3.97;;;;;;;;;;4983181;28;20042;-75
2023/03/21 09:23:51;;;;;;;5.95;3.38;;;;;;;;;;4980628;28;20064;-77
2023/03/21 09:26:18;;;;;;;13.02;4.85;;;;;;;;;;4985017;28;20080;-76
2023/03/21 09:28:45;;;;;;;8.27;3.90;;;;;;;;;;4977614;28;20572;-78
2023/03/21 09:31:13;;;;;;;7.20;3.50;;;;;;;;;;4983241;28;20049;-77
2023/03/21 09:33:40;;;;;;;7.72;3.75;;;;;;;;;;4981170;28;20060;-78
2023/03/21 09:36:11;;;;;;;6.88;3.40;;;;;;;;;;4981918;28;20077;-77
2023/03/21 09:38:39;;;;;;;5.85;2.80;;;;;;;;;;4982023;28;20616;-78
2023/03/21 09:41:40;;;;;;;7.53;3.00;;;;;;;;;;4982099;28;20062;-77
2023/03/21 09:44:28;;;;;;;7.88;3.58;;;;;;;;;;4994661;28;20030;-78
2023/03/21 09:47:23;;;;;;;5.25;3.05;;;;;;;;;;4992747;28;20057;-76
2023/03/21 09:49:57;;;;;;;9.48;3.30;;;;;;;;;;4997429;28;20421;-77
2023/03/21 09:52:44;;;;;;;124.75;16.83;;;;;;;;;;4980532;28;20034;-77
2023/03/21 09:55:25;;;;;;;8.13;3.83;;;;;;;;;;4978701;28;20133;-77
2023/03/21 09:58:27;;;;;;;7.93;2.95;;;;;;;;;;4978248;28;20034;-76
2023/03/21 10:01:20;;;;;;;4.70;2.80;;;;;;;;;;4978753;28;20030;-78
2023/03/21 10:03:49;;;;;;;5.10;2.95;;;;;;;;;;4979011;28;20038;-76
2023/03/21 10:06:17;;;;;;;3.45;2.50;;;;;;;;;;4985300;28;20030;-80
2023/03/21 10:08:46;;;;;;;6.50;3.40;;;;;;;;;;4985985;28;20058;-77
2023/03/21 10:11:17;;;;;;;8.00;2.63;;;;;;;;;;4982991;28;20030;-74
2023/03/21 10:14:06;;;;;;;5.25;3.00;;;;;;;;;;4983932;28;20440;-77
2023/03/21 10:16:41;;;;;;;20.40;4.55;;;;;;;;;;4987844;28;20083;-76
2023/03/21 10:19:12;;;;;;;5.60;2.67;;;;;;;;;;4996825;28;20039;-76
2023/03/21 10:21:45;;;;;;;6.70;2.05;;;;;;;;;;4976636;28;20239;-78
2023/03/21 10:24:20;;;;;;;3.20;1.95;;;;;;;;;;4998909;28;20038;-76
2023/03/21 10:26:48;;;;;;;4.22;2.30;;;;;;;;;;5004131;28;20026;-75
2023/03/21 10:29:16;;;;;;;5.22;2.80;;;;;;;;;;4999920;28;20270;-77
2023/03/21 10:31:43;;;;;;;6.13;2.55;;;;;;;;;;4977752;28;20165;-76
2023/03/21 10:34:17;;;;;;;4.47;2.47;;;;;;;;;;4985199;28;20690;-77
2023/03/21 10:36:43;;;;;;;5.07;2.30;;;;;;;;;;4997785;28;20291;-75
2023/03/21 10:39:26;;;;;;;3.60;2.47;;;;;;;;;;4985803;28;20102;-77
2023/03/21 10:41:52;;;;;;;3.70;2.20;;;;;;;;;;4982105;28;20383;-77
2023/03/21 10:44:18;;;;;;;4.55;2.50;;;;;;;;;;4988567;28;20049;-76
2023/03/21 10:47:10;;;;;;;7.93;3.78;;;;;;;;;;4984140;28;20030;-77
2023/03/21 10:49:37;;;;;;;20.48;8.77;;;;;;;;;;4984784;28;20096;-76
2023/03/21 10:52:11;;;;;;;6.45;3.13;;;;;;;;;;4973917;28;20100;-75
2023/03/21 10:54:36;;;;;;;5.70;2.90;;;;;;;;;;4980534;28;20104;-76
2023/03/21 10:57:07;;;;;;;9.27;2.92;;;;;;;;;;4981051;28;20038;-75
2023/03/21 10:59:44;;;;;;;5.60;2.47;;;;;;;;;;4975757;28;20038;-76
2023/03/21 11:02:25;;;;;;;6.55;2.75;;;;;;;;;;4965106;28;20247;-73
2023/03/21 11:04:53;;;;;;;5.60;2.22;;;;;;;;;;4973670;28;20099;-78
2023/03/21 11:07:19;;;;;;;7.22;2.38;;;;;;;;;;4984525;28;20514;-78
2023/03/21 11:10:00;;;;;;;5.22;2.50;;;;;;;;;;4983369;28;20030;-77
2023/03/21 11:12:49;;;;;;;5.57;2.80;;;;;;;;;;4961617;28;20065;-76
2023/03/21 11:15:47;;;;;;;2.65;2.17;;;;;;;;;;4965835;28;20043;-78
2023/03/21 11:18:14;;;;;;;6.35;2.15;;;;;;;;;;4980116;28;20145;-77
2023/03/21 11:20:53;;;;;;;2.72;2.17;;;;;;;;;;4971743;28;20030;-79
2023/03/21 11:23:20;;;;;;;4.28;2.20;;;;;;;;;;4956304;28;20101;-78
2023/03/21 11:25:49;;;;;;;8.85;2.42;;;;;;;;;;4984749;28;20026;-79
2023/03/21 11:28:21;;;;;;;1.77;1.42;;;;;;;;;;4983986;28;20026;-75
2023/03/21 11:30:57;;;;;;;;;;;;;;;;;;4985662;28;20065;-79
2023/03/21 11:33:27;;;;;;;7.90;2.58;;;;;;;;;;4982939;28;20497;-75
2023/03/21 11:36:06;;;;;;;3.50;2.80;;;;;;;;;;4982104;28;20034;-79
2023/03/21 11:38:36;;;;;;;4.50;2.45;;;;;;;;;;4978324;28;20064;-75
2023/03/21 11:41:04;;;;;;;3.90;2.60;;;;;;;;;;4983649;28;20088;-77
2023/03/21 11:43:39;;;;;;;2.88;2.20;;;;;;;;;;4990224;28;20030;-77
2023/03/21 11:46:12;;;;;;;5.35;2.28;;;;;;;;;;4984217;28;20133;-78
2023/03/21 11:48:44;;;;;;;3.97;2.38;;;;;;;;;;4985453;28;20057;-76
2023/03/21 11:51:31;;;;;;;5.72;2.20;;;;;;;;;;4981695;28;20038;-77
2023/03/21 11:54:19;;;;;;;3.22;2.13;;;;;;;;;;4990450;28;20040;-76
2023/03/21 11:56:49;;;;;;;4.15;2.50;;;;;;;;;;4979546;28;20273;-77
2023/03/21 11:59:48;;;;;;;6.05;2.80;;;;;;;;;;4996772;28;20479;-76
2023/03/21 12:02:29;;;;;;;5.25;2.00;;;;;;;;;;4976262;28;20156;-78
2023/03/21 12:05:06;;;;;;;2.78;1.63;;;;;;;;;;4977084;28;20113;-77
2023/03/21 12:07:40;;;;;;;4.93;2.58;;;;;;;;;;4982004;28;20038;-72
2023/03/21 12:10:31;;;;;;;5.28;2.08;;;;;;;;;;4973066;28;20037;-81
2023/03/21 12:13:25;;;;;;;8.43;2.53;;;;;;;;;;4980607;28;20300;-79
2023/03/21 12:16:13;;;;;;;2.33;2.03;;;;;;;;;;4979532;28;20041;-77
2023/03/21 12:18:47;;;;;;;5.13;1.80;;;;;;;;;;4983219;28;20054;-75
2023/03/21 12:21:38;;;;;;;6.75;3.67;;;;;;;;;;4983376;28;20026;-78
2023/03/21 12:24:46;;;;;;;3.17;2.38;;;;;;;;;;4976661;28;20070;-74
2023/03/21 12:27:25;;;;;;;7.95;2.28;;;;;;;;;;4953952;28;20094;-76
2023/03/21 12:30:03;;;;;;;7.93;3.35;;;;;;;;;;4981615;28;20340;-76
2023/03/21 12:32:39;;;;;;;7.70;2.28;;;;;;;;;;4984683;28;20034;-77
2023/03/21 12:35:25;;;;;;;6.53;2.17;;;;;;;;;;4983559;28;20026;-75
2023/03/21 12:38:22;;;;;;;13.20;3.75;;;;;;;;;;4983342;28;20592;-77
2023/03/21 12:41:08;;;;;;;5.55;2.88;;;;;;;;;;4981296;28;20120;-77
2023/03/21 12:43:50;;;;;;;6.97;3.30;;;;;;;;;;4973377;28;20026;-75
2023/03/21 12:46:15;;;;;;;16.08;3.75;;;;;;;;;;4995912;28;20022;-77
2023/03/21 12:49:02;;;;;;;3.70;2.83;;;;;;;;;;4984066;28;20053;-75
2023/03/21 12:51:32;;;;;;;3.92;2.53;;;;;;;;;;4984062;28;20038;-74
2023/03/21 12:54:06;;;;;;;8.25;2.92;;;;;;;;;;4986574;28;20033;-75
2023/03/21 12:56:45;;;;;;;4.32;2.25;;;;;;;;;;4980786;28;20233;-74
2023/03/21 12:59:37;;;;;;;5.35;2.83;;;;;;;;;;4979004;28;20037;-75
2023/03/21 13:02:39;;;;;;;10.13;2.83;;;;;;;;;;4977275;28;20718;-74
2023/03/21 13:05:15;;;;;;;5.80;2.88;;;;;;;;;;4979779;28;20072;-75
2023/03/21 13:07:46;;;;;;;4.30;2.45;;;;;;;;;;4979915;28;20053;-75
2023/03/21 13:10:19;;;;;;;9.93;3.00;;;;;;;;;;4980357;28;20514;-75
2023/03/21 13:13:09;;;;;;;4.25;2.53;;;;;;;;;;4981668;28;20041;-74
2023/03/21 13:16:01;;;;;;;7.07;3.55;;;;;;;;;;4985919;28;20479;-74
2023/03/21 13:19:12;;;;;;;7.43;2.33;;;;;;;;;;4976609;28;20588;-74
2023/03/21 13:21:41;;;;;;;9.52;2.60;;;;;;;;;;4960655;28;20050;-75
2023/03/21 13:24:47;;;;;;;6.40;2.42;;;;;;;;;;4984373;28;20098;-75
2023/03/21 13:27:28;;;;;;;4.53;3.00;;;;;;;;;;4977129;28;20030;-73
2023/03/21 13:30:08;;;;;;;16.45;3.78;;;;;;;;;;4976823;28;20077;-74
2023/03/21 13:32:38;;;;;;;5.38;2.47;;;;;;;;;;4981529;28;20040;-75
2023/03/21 13:35:31;;;;;;;6.85;2.88;;;;;;;;;;4982402;28;20037;-74
2023/03/21 13:38:05;;;;;;;6.10;3.40;;;;;;;;;;4984766;28;20088;-74
2023/03/21 13:40:45;;;;;;;4.82;2.92;;;;;;;;;;4983519;28;20035;-73
2023/03/21 13:43:50;;;;;;;6.45;2.85;;;;;;;;;;4978787;28;20061;-74
2023/03/21 13:46:27;;;;;;;4.22;2.90;;;;;;;;;;4922092;28;20642;-74
2023/03/21 13:49:36;;;;;;;8.95;3.65;;;;;;;;;;4984104;28;20038;-76
2023/03/21 13:52:26;;;;;;;5.15;2.80;;;;;;;;;;4959696;28;20041;-75
2023/03/21 13:54:56;;;;;;;6.97;3.38;;;;;;;;;;4974647;28;20514;-75
2023/03/21 13:57:39;;;;;;;4.63;2.42;;;;;;;;;;4984560;28;20477;-74
2023/03/21 14:00:18;;;;;;;7.78;3.33;;;;;;;;;;4987655;28;20034;-74
2023/03/21 14:03:06;;;;;;;12.40;3.58;;;;;;;;;;4988012;28;20030;-73
2023/03/21 14:05:34;;;;;;;14.00;5.90;;;;;;;;;;4988958;28;20022;-74
2023/03/21 14:08:16;;;;;;;6.63;3.50;;;;;;;;;;4988600;28;20081;-73
2023/03/21 14:10:45;;;;;;;7.43;3.20;;;;;;;;;;4988461;28;20133;-74
2023/03/21 14:13:16;;;;;;;5.40;2.92;;;;;;;;;;4984361;28;20026;-74
2023/03/21 14:15:46;;;;;;;6.07;2.70;;;;;;;;;;4990035;28;20560;-75
2023/03/21 14:18:18;;;;;;;4.65;2.17;;;;;;;;;;4983709;28;20062;-74
2023/03/21 14:20:44;;;;;;;17.02;3.78;;;;;;;;;;4991249;28;20018;-75
2023/03/21 14:23:16;;;;;;;4.28;2.88;;;;;;;;;;4990494;28;20041;-75
2023/03/21 14:25:45;;;;;;;10.15;3.30;;;;;;;;;;4991130;28;20057;-73
2023/03/21 14:28:30;;;;;;;5.40;2.88;;;;;;;;;;4991526;28;20034;-76
2023/03/21 14:30:59;;;;;;;5.90;2.63;;;;;;;;;;4980698;28;20519;-74
2023/03/21 14:33:36;;;;;;;6.05;3.22;;;;;;;;;;4983909;28;20038;-75
2023/03/21 14:36:07;;;;;;;4.75;3.33;;;;;;;;;;4967510;28;20557;-75
2023/03/21 14:38:35;;;;;;;;;;;;;;;;;;4987981;28;20034;-73
2023/03/21 14:41:02;;;;;;;5.65;3.78;;;;;;;;;;4979494;28;19922;-76
2023/03/21 14:43:32;;;;;;;17.73;4.45;;;;;;;;;;4983383;28;20459;-74
2023/03/21 14:45:59;;;;;;;12.73;3.60;;;;;;;;;;4984865;28;20057;-75
2023/03/21 14:48:33;;;;;;;8.20;3.30;;;;;;;;;;4985239;28;20038;-75
2023/03/21 14:51:09;;;;;;;17.90;3.85;;;;;;;;;;4987525;28;20040;-75
2023/03/21 14:53:40;;;;;;;5.18;2.90;;;;;;;;;;4987040;28;20554;-75
2023/03/21 14:56:24;;;;;;;7.22;3.20;;;;;;;;;;4979113;28;20685;-74
2023/03/21 14:58:52;;;;;;;11.10;3.80;;;;;;;;;;5001018;28;20031;-76
2023/03/21 15:01:29;;;;;;;7.10;2.70;;;;;;;;;;5002287;28;20026;-74
2023/03/21 15:03:57;;;;;;;5.00;3.15;;;;;;;;;;4986814;28;20458;-75
2023/03/21 15:06:25;;;;;;;6.13;3.13;;;;;;;;;;4989686;28;20038;-76